createdAt,value
2019-01-25T00:00:01.698Z,45.25
2019-01-25T00:02:29.961Z,44.03
2019-01-25T00:04:58.230Z,45.12
2019-01-25T00:07:26.474Z,45.15
2019-01-25T00:09:58.583Z,42.60
2019-01-25T00:12:24.734Z,41.33
2019-01-25T00:14:52.993Z,43.13
2019-01-25T00:17:21.247Z,38.45
2019-01-25T00:19:49.638Z,40.23
2019-01-25T00:22:17.914Z,43.10
2019-01-25T00:24:46.151Z,45.08
2019-01-25T00:27:14.397Z,42.83
2019-01-25T00:29:42.654Z,41.48
2019-01-25T00:32:10.916Z,44.30
2019-01-25T00:34:39.179Z,42.25
2019-01-25T00:37:07.432Z,40.03
2019-01-25T00:39:35.671Z,39.40
2019-01-25T00:42:03.925Z,36.88
2019-01-25T00:44:32.247Z,36.00
2019-01-25T00:47:00.485Z,37.98
2019-01-25T00:49:29.703Z,36.10
2019-01-25T00:51:57.993Z,39.35
2019-01-25T00:54:26.246Z,35.58
2019-01-25T00:56:54.540Z,34.43
2019-01-25T00:59:22.830Z,35.38
2019-01-25T01:01:51.088Z,33.15
2019-01-25T01:04:19.337Z,32.65
2019-01-25T01:06:47.612Z,31.30
2019-01-25T01:09:15.862Z,32.58
2019-01-25T01:11:44.107Z,30.72
2019-01-25T01:14:12.359Z,31.82
2019-01-25T01:16:40.615Z,32.65
2019-01-25T01:19:08.858Z,28.55
2019-01-25T01:21:37.122Z,31.57
2019-01-25T01:24:05.449Z,32.05
2019-01-25T01:26:33.710Z,31.05
2019-01-25T01:29:01.962Z,31.50
2019-01-25T01:31:30.201Z,31.65
2019-01-25T01:33:58.470Z,30.17
2019-01-25T01:36:26.728Z,30.25
2019-01-25T01:38:54.988Z,30.25
2019-01-25T01:41:23.226Z,29.18
2019-01-25T01:43:51.492Z,29.87
2019-01-25T01:46:19.761Z,29.60
2019-01-25T01:48:48.051Z,29.42
2019-01-25T01:51:19.187Z,31.27
2019-01-25T01:53:47.450Z,31.42
2019-01-25T01:56:15.711Z,30.77
2019-01-25T01:58:43.963Z,31.37
2019-01-25T02:01:12.226Z,30.25
2019-01-25T02:03:40.465Z,29.75
2019-01-25T02:06:08.729Z,29.42
2019-01-25T02:08:36.986Z,29.00
2019-01-25T02:11:05.260Z,32.33
2019-01-25T02:13:33.551Z,30.43
2019-01-25T02:16:01.795Z,30.27
2019-01-25T02:18:30.039Z,33.30
2019-01-25T02:20:58.308Z,32.23
2019-01-25T02:23:26.550Z,33.70
2019-01-25T02:25:54.836Z,32.88
2019-01-25T02:28:23.080Z,36.30
2019-01-25T02:31:10.794Z,33.18
2019-01-25T02:33:39.030Z,33.63
2019-01-25T02:36:26.717Z,31.25
2019-01-25T02:38:54.962Z,31.90
2019-01-25T02:41:23.207Z,36.75
2019-01-25T02:44:10.913Z,34.48
2019-01-25T02:46:39.167Z,32.93
2019-01-25T02:49:07.444Z,33.70
2019-01-25T02:51:35.673Z,32.20
2019-01-25T02:54:03.920Z,34.10
2019-01-25T02:56:32.202Z,33.42
2019-01-25T02:59:00.462Z,32.73
2019-01-25T03:01:28.717Z,33.13
2019-01-25T03:03:56.986Z,34.27
2019-01-25T03:06:25.273Z,33.38
2019-01-25T03:08:53.600Z,32.38
2019-01-25T03:11:21.858Z,33.13
2019-01-25T03:13:50.107Z,33.78
2019-01-25T03:16:18.384Z,33.05
2019-01-25T03:18:46.618Z,34.20
2019-01-25T03:21:14.887Z,34.38
2019-01-25T03:23:43.158Z,32.23
2019-01-25T03:26:11.424Z,33.38
2019-01-25T03:28:39.678Z,32.83
2019-01-25T03:31:07.941Z,34.60
2019-01-25T03:33:36.240Z,33.13
2019-01-25T03:36:04.519Z,33.85
2019-01-25T03:38:32.776Z,35.88
2019-01-25T03:41:01.034Z,32.63
2019-01-25T03:43:29.273Z,34.88
2019-01-25T03:45:57.546Z,35.43
2019-01-25T03:48:25.790Z,33.10
2019-01-25T03:50:54.061Z,33.33
2019-01-25T03:53:22.313Z,54.77
2019-01-25T03:55:50.586Z,39.78
2019-01-25T03:58:18.818Z,38.60
2019-01-25T04:00:47.059Z,35.43
2019-01-25T04:03:15.331Z,34.80
2019-01-25T04:05:43.610Z,33.70
2019-01-25T04:08:11.909Z,34.92
2019-01-25T04:10:40.166Z,33.08
2019-01-25T04:13:08.435Z,34.25
2019-01-25T04:15:36.776Z,33.50
2019-01-25T04:18:05.059Z,34.78
2019-01-25T04:20:33.298Z,34.35
2019-01-25T04:23:01.563Z,32.90
2019-01-25T04:25:29.877Z,34.35
2019-01-25T04:27:58.155Z,32.65
2019-01-25T04:30:32.840Z,34.08
2019-01-25T04:33:01.000Z,33.05
2019-01-25T04:35:29.302Z,33.88
2019-01-25T04:37:57.607Z,34.13
2019-01-25T04:40:25.875Z,34.75
2019-01-25T04:42:54.109Z,37.88
2019-01-25T04:45:23.075Z,34.98
2019-01-25T04:47:51.513Z,36.53
2019-01-25T04:50:22.259Z,36.08
2019-01-25T04:52:50.769Z,36.30
2019-01-25T04:55:27.405Z,35.05
2019-01-25T04:57:59.506Z,35.15
2019-01-25T05:00:27.756Z,33.75
2019-01-25T05:02:57.962Z,36.03
2019-01-25T05:05:26.384Z,37.45
2019-01-25T05:08:03.706Z,36.33
2019-01-25T05:10:31.975Z,37.80
2019-01-25T05:13:00.239Z,34.27
2019-01-25T05:15:28.486Z,37.08
2019-01-25T05:17:56.742Z,34.67
2019-01-25T05:20:24.994Z,35.50
2019-01-25T05:22:59.498Z,35.55
2019-01-25T05:25:28.298Z,36.38
2019-01-25T05:27:56.843Z,35.65
2019-01-25T05:30:26.128Z,34.83
2019-01-25T05:32:54.389Z,34.18
2019-01-25T05:35:22.648Z,35.28
2019-01-25T05:37:50.991Z,35.83
2019-01-25T05:40:26.749Z,35.58
2019-01-25T05:42:55.069Z,34.00
2019-01-25T05:45:23.315Z,36.58
2019-01-25T05:47:51.584Z,36.60
2019-01-25T05:50:19.833Z,36.00
2019-01-25T05:52:48.135Z,37.63
2019-01-25T05:55:18.315Z,37.67
2019-01-25T05:57:46.571Z,36.58
2019-01-25T06:00:16.468Z,36.80
2019-01-25T06:02:44.706Z,35.52
2019-01-25T06:05:13.063Z,36.98
2019-01-25T06:07:41.316Z,39.92
2019-01-25T06:10:11.675Z,37.20
2019-01-25T06:12:39.967Z,38.55
2019-01-25T06:15:28.438Z,41.25
2019-01-25T06:18:01.215Z,37.38
2019-01-25T06:20:29.491Z,40.23
2019-01-25T06:22:57.754Z,38.05
2019-01-25T06:25:26.032Z,33.42
2019-01-25T06:27:54.303Z,39.20
2019-01-25T06:30:22.543Z,38.23
2019-01-25T06:32:50.877Z,36.98
2019-01-25T06:35:19.132Z,36.00
2019-01-25T06:37:47.401Z,39.10
2019-01-25T06:40:15.718Z,36.42
2019-01-25T06:42:44.000Z,37.05
2019-01-25T06:45:12.415Z,37.98
2019-01-25T06:47:40.681Z,36.77
2019-01-25T06:50:10.979Z,37.88
2019-01-25T06:52:39.231Z,39.33
2019-01-25T06:55:07.939Z,38.33
2019-01-25T06:57:46.567Z,39.95
2019-01-25T07:00:18.113Z,37.17
2019-01-25T07:02:46.390Z,39.05
2019-01-25T07:05:14.642Z,38.30
2019-01-25T07:07:44.288Z,41.70
2019-01-25T07:10:15.466Z,36.68
2019-01-25T07:12:43.752Z,39.00
2019-01-25T07:15:14.013Z,38.67
2019-01-25T07:17:42.261Z,37.95
2019-01-25T07:20:15.414Z,39.08
2019-01-25T07:22:43.656Z,39.48
2019-01-25T07:25:13.258Z,39.63
2019-01-25T07:27:41.510Z,35.30
2019-01-25T07:30:16.751Z,37.13
2019-01-25T07:32:45.042Z,39.48
2019-01-25T07:35:13.356Z,35.20
2019-01-25T07:37:41.713Z,37.03
2019-01-25T07:40:11.144Z,38.53
2019-01-25T07:42:39.543Z,38.25
2019-01-25T07:45:10.974Z,38.42
2019-01-25T07:47:39.198Z,37.67
2019-01-25T07:50:11.425Z,36.53
2019-01-25T07:52:39.835Z,36.23
2019-01-25T07:55:09.833Z,36.15
2019-01-25T07:57:38.161Z,34.78
2019-01-25T08:00:09.728Z,32.95
2019-01-25T08:02:37.975Z,37.00
2019-01-25T08:05:08.174Z,36.90
2019-01-25T08:07:36.415Z,36.13
2019-01-25T08:10:10.666Z,35.48
2019-01-25T08:12:38.914Z,35.03
2019-01-25T08:15:10.441Z,37.75
2019-01-25T08:17:38.705Z,37.78
2019-01-25T08:20:10.464Z,39.60
2019-01-25T08:22:38.716Z,34.03
2019-01-25T08:25:08.436Z,39.75
2019-01-25T08:27:36.765Z,38.55
2019-01-25T08:30:11.573Z,36.33
2019-01-25T08:32:39.818Z,39.58
2019-01-25T08:35:09.842Z,39.18
2019-01-25T08:37:38.198Z,38.65
2019-01-25T08:40:09.971Z,40.43
2019-01-25T08:42:38.251Z,39.03
2019-01-25T08:45:09.560Z,37.98
2019-01-25T08:47:37.807Z,37.88
2019-01-25T08:50:09.435Z,36.90
2019-01-25T08:52:37.670Z,36.30
2019-01-25T08:55:05.983Z,34.95
2019-01-25T08:57:34.249Z,37.08
2019-01-25T09:00:02.846Z,36.28
2019-01-25T09:02:31.101Z,35.23
2019-01-25T09:04:59.361Z,34.85
2019-01-25T09:07:27.612Z,32.30
2019-01-25T09:09:55.970Z,33.45
2019-01-25T09:12:24.218Z,32.85
2019-01-25T09:14:52.484Z,34.18
2019-01-25T09:17:20.736Z,33.02
2019-01-25T09:19:48.994Z,33.40
2019-01-25T09:22:17.259Z,32.90
2019-01-25T09:24:45.537Z,33.98
2019-01-25T09:27:13.776Z,35.70
2019-01-25T09:29:42.109Z,34.83
2019-01-25T09:32:10.351Z,32.17
2019-01-25T09:34:38.609Z,33.18
2019-01-25T09:37:06.857Z,32.58
2019-01-25T09:39:35.116Z,33.85
2019-01-25T09:42:03.399Z,31.70
2019-01-25T09:44:31.653Z,31.48
2019-01-25T09:46:59.931Z,31.35
2019-01-25T09:49:28.161Z,28.38
2019-01-25T09:51:56.436Z,32.45
2019-01-25T09:54:24.684Z,30.45
2019-01-25T09:56:52.925Z,30.82
2019-01-25T09:59:21.205Z,30.65
2019-01-25T10:01:50.321Z,30.70
2019-01-25T10:04:18.847Z,31.05
2019-01-25T10:06:47.087Z,30.90
2019-01-25T10:09:15.361Z,31.17
2019-01-25T10:11:43.589Z,31.65
2019-01-25T10:14:11.844Z,31.10
2019-01-25T10:16:59.506Z,29.65
2019-01-25T10:19:27.766Z,30.55
2019-01-25T10:21:56.020Z,30.55
2019-01-25T10:24:24.358Z,32.75
2019-01-25T10:26:52.624Z,31.85
2019-01-25T10:29:20.873Z,30.97
2019-01-25T10:31:49.143Z,29.77
2019-01-25T10:34:17.393Z,31.50
2019-01-25T10:36:45.698Z,28.25
2019-01-25T10:39:13.971Z,29.40
2019-01-25T10:41:42.206Z,28.38
2019-01-25T10:44:10.443Z,29.37
2019-01-25T10:46:38.786Z,30.95
2019-01-25T10:49:07.043Z,29.45
2019-01-25T10:51:35.301Z,29.95
2019-01-25T10:54:03.550Z,30.30
2019-01-25T10:56:31.803Z,27.40
2019-01-25T10:59:00.080Z,28.20
2019-01-25T11:01:28.341Z,28.60
2019-01-25T11:03:56.575Z,32.50
2019-01-25T11:06:24.838Z,28.10
2019-01-25T11:08:53.117Z,27.70
2019-01-25T11:11:21.357Z,31.00
2019-01-25T11:13:49.593Z,37.30
2019-01-25T11:16:17.849Z,79.17
2019-01-25T11:18:46.117Z,31.48
2019-01-25T11:21:14.402Z,43.40
2019-01-25T11:23:42.644Z,48.38
2019-01-25T11:26:10.900Z,43.17
2019-01-25T11:28:39.171Z,67.10
2019-01-25T11:31:07.434Z,28.95
2019-01-25T11:33:35.684Z,32.33
2019-01-25T11:36:03.964Z,32.28
2019-01-25T11:38:32.234Z,30.95
2019-01-25T11:41:00.512Z,32.05
2019-01-25T11:43:28.736Z,32.83
2019-01-25T11:45:57.257Z,31.05
2019-01-25T11:48:25.637Z,30.05
2019-01-25T11:50:53.950Z,29.57
2019-01-25T11:53:22.230Z,29.05
2019-01-25T11:55:50.515Z,29.40
2019-01-25T11:58:18.758Z,31.40
2019-01-25T12:00:47.299Z,29.02
2019-01-25T12:03:15.613Z,27.87
2019-01-25T12:05:43.849Z,28.30
2019-01-25T12:08:12.238Z,27.58
2019-01-25T12:10:59.940Z,28.70
2019-01-25T12:13:28.191Z,27.90
2019-01-25T12:15:56.455Z,27.95
2019-01-25T12:18:24.754Z,23.40
2019-01-25T12:20:53.027Z,21.87
2019-01-25T12:23:21.305Z,24.75
2019-01-25T12:25:49.539Z,23.70
2019-01-25T12:28:17.782Z,23.83
2019-01-25T12:30:46.049Z,22.40
2019-01-25T12:33:14.325Z,23.40
2019-01-25T12:35:42.588Z,23.42
2019-01-25T12:38:10.841Z,22.42
2019-01-25T12:40:42.033Z,23.27
2019-01-25T12:43:09.045Z,24.52
2019-01-25T12:45:37.320Z,23.83
2019-01-25T12:48:05.586Z,23.92
2019-01-25T12:50:40.004Z,23.90
2019-01-25T12:53:10.065Z,22.70
2019-01-25T12:55:38.398Z,23.80
2019-01-25T12:58:06.712Z,25.57
2019-01-25T13:00:34.966Z,23.20
2019-01-25T13:03:03.232Z,23.32
2019-01-25T13:05:31.470Z,23.98
2019-01-25T13:07:59.710Z,23.60
2019-01-25T13:10:28.617Z,25.32
2019-01-25T13:12:56.873Z,25.20
2019-01-25T13:15:25.158Z,24.92
2019-01-25T13:17:53.412Z,26.85
2019-01-25T13:20:27.097Z,26.00
2019-01-25T13:22:55.419Z,24.63
2019-01-25T13:25:23.676Z,24.52
2019-01-25T13:27:51.997Z,27.67
2019-01-25T13:30:31.058Z,26.57
2019-01-25T13:32:59.383Z,27.32
2019-01-25T13:35:27.715Z,27.20
2019-01-25T13:37:56.067Z,24.55
2019-01-25T13:40:25.936Z,25.00
2019-01-25T13:42:54.261Z,26.25
2019-01-25T13:45:23.250Z,25.60
2019-01-25T13:47:51.591Z,25.82
2019-01-25T13:50:30.422Z,26.27
2019-01-25T13:52:58.728Z,25.25
2019-01-25T13:55:27.022Z,27.93
2019-01-25T13:57:55.272Z,27.00
2019-01-25T14:00:34.539Z,25.90
2019-01-25T14:03:02.778Z,26.10
2019-01-25T14:05:31.027Z,25.12
2019-01-25T14:07:59.270Z,23.42
2019-01-25T14:10:29.573Z,23.45
2019-01-25T14:12:57.814Z,27.22
2019-01-25T14:15:26.095Z,24.75
2019-01-25T14:17:54.347Z,22.82
2019-01-25T14:20:28.080Z,22.32
2019-01-25T14:22:56.333Z,24.18
2019-01-25T14:25:24.580Z,22.00
2019-01-25T14:27:52.860Z,20.75
2019-01-25T14:30:38.384Z,21.85
2019-01-25T14:33:07.173Z,21.10
2019-01-25T14:35:35.562Z,23.70
2019-01-25T14:38:03.903Z,21.15
2019-01-25T14:40:32.151Z,23.07
2019-01-25T14:43:00.412Z,23.22
2019-01-25T14:45:28.685Z,23.47
2019-01-25T14:47:56.993Z,22.80
2019-01-25T14:50:31.896Z,23.22
2019-01-25T14:53:00.216Z,23.27
2019-01-25T14:55:28.468Z,22.62
2019-01-25T14:57:56.711Z,22.13
2019-01-25T15:00:24.998Z,21.33
2019-01-25T15:02:53.247Z,21.45
2019-01-25T15:05:21.521Z,22.27
2019-01-25T15:07:49.855Z,21.68
2019-01-25T15:10:20.138Z,23.00
2019-01-25T15:12:49.044Z,21.85
2019-01-25T15:15:17.295Z,24.35
2019-01-25T15:17:45.550Z,21.80
2019-01-25T15:20:16.792Z,24.50
2019-01-25T15:22:45.027Z,23.87
2019-01-25T15:25:13.286Z,25.52
2019-01-25T15:27:41.557Z,25.45
2019-01-25T15:30:18.550Z,28.85
2019-01-25T15:32:46.799Z,42.30
2019-01-25T15:35:16.441Z,31.57
2019-01-25T15:37:44.687Z,38.08
2019-01-25T15:40:15.071Z,28.30
2019-01-25T15:42:43.337Z,31.87
2019-01-25T15:45:13.928Z,28.00
2019-01-25T15:47:42.153Z,31.23
2019-01-25T15:50:16.029Z,36.40
2019-01-25T15:52:44.302Z,36.60
2019-01-25T15:55:12.546Z,40.12
2019-01-25T15:57:40.820Z,31.82
2019-01-25T16:00:14.954Z,43.35
2019-01-25T16:02:43.245Z,35.63
2019-01-25T16:05:13.819Z,33.25
2019-01-25T16:07:42.096Z,33.02
2019-01-25T16:10:13.695Z,28.23
2019-01-25T16:12:41.958Z,27.50
2019-01-25T16:15:15.949Z,29.12
2019-01-25T16:17:44.204Z,27.10
2019-01-25T16:20:14.681Z,28.40
2019-01-25T16:22:42.937Z,29.82
2019-01-25T16:25:13.830Z,23.92
2019-01-25T16:27:42.091Z,25.85
2019-01-25T16:30:13.445Z,24.85
2019-01-25T16:32:41.697Z,23.15
2019-01-25T16:35:10.889Z,23.67
2019-01-25T16:37:39.149Z,23.05
2019-01-25T16:40:13.323Z,21.07
2019-01-25T16:42:41.603Z,18.45
2019-01-25T16:45:18.499Z,18.87
2019-01-25T16:47:46.725Z,15.38
2019-01-25T16:50:23.424Z,14.75
2019-01-25T16:52:45.374Z,13.88
2019-01-25T16:55:15.169Z,12.13
2019-01-25T16:57:43.405Z,12.43
2019-01-25T17:00:14.950Z,11.83
2019-01-25T17:02:43.192Z,11.30
2019-01-25T17:05:11.444Z,10.05
2019-01-25T17:07:39.690Z,10.03
2019-01-25T17:10:10.824Z,10.15
2019-01-25T17:12:39.091Z,10.15
2019-01-25T17:15:09.983Z,11.30
2019-01-25T17:17:38.480Z,11.08
2019-01-25T17:20:17.229Z,11.18
2019-01-25T17:22:39.874Z,11.03
2019-01-25T17:25:11.306Z,10.80
2019-01-25T17:27:39.557Z,14.98
2019-01-25T17:30:19.619Z,21.27
2019-01-25T17:32:47.877Z,26.50
2019-01-25T17:35:16.177Z,25.20
2019-01-25T17:37:44.436Z,20.48
2019-01-25T17:40:17.902Z,18.90
2019-01-25T17:42:46.139Z,20.23
2019-01-25T17:45:14.821Z,20.97
2019-01-25T17:47:43.106Z,19.85
2019-01-25T17:50:13.437Z,19.17
2019-01-25T17:52:41.679Z,19.15
2019-01-25T17:55:12.662Z,18.40
2019-01-25T17:57:40.936Z,18.98
2019-01-25T18:00:12.874Z,17.62
2019-01-25T18:02:41.145Z,17.52
2019-01-25T18:05:09.411Z,18.12
2019-01-25T18:07:37.672Z,16.20
2019-01-25T18:10:11.818Z,18.20
2019-01-25T18:12:40.165Z,15.85
2019-01-25T18:15:11.054Z,18.07
2019-01-25T18:17:39.331Z,16.15
2019-01-25T18:20:10.610Z,16.85
2019-01-25T18:22:38.850Z,15.23
2019-01-25T18:25:10.296Z,17.57
2019-01-25T18:27:41.185Z,15.95
2019-01-25T18:30:27.885Z,17.40
2019-01-25T18:32:56.154Z,16.12
2019-01-25T18:35:24.405Z,15.90
2019-01-25T18:37:52.721Z,15.72
2019-01-25T18:40:20.993Z,15.78
2019-01-25T18:42:49.245Z,16.42
2019-01-25T18:45:17.525Z,13.90
2019-01-25T18:47:45.747Z,14.60
2019-01-25T18:50:15.742Z,14.47
2019-01-25T18:52:44.012Z,15.70
2019-01-25T18:55:18.019Z,15.48
2019-01-25T18:57:46.259Z,13.50
2019-01-25T19:00:19.601Z,14.73
2019-01-25T19:02:47.867Z,11.38
2019-01-25T19:05:16.134Z,10.00
2019-01-25T19:07:44.442Z,11.73
2019-01-25T19:10:24.384Z,9.48
2019-01-25T19:12:52.610Z,10.98
2019-01-25T19:15:26.571Z,9.60
2019-01-25T19:17:54.900Z,13.75
2019-01-25T19:20:23.145Z,10.63
2019-01-25T19:22:51.395Z,9.68
2019-01-25T19:25:19.651Z,8.83
2019-01-25T19:27:47.923Z,8.63
2019-01-25T19:30:43.258Z,9.50
2019-01-25T19:33:11.504Z,8.08
2019-01-25T19:35:39.739Z,8.55
2019-01-25T19:38:09.429Z,8.15
2019-01-25T19:40:37.687Z,9.88
2019-01-25T19:43:06.974Z,8.50
2019-01-25T19:45:35.233Z,8.65
2019-01-25T19:48:03.512Z,8.05
2019-01-25T19:50:31.742Z,8.80
2019-01-25T19:52:59.973Z,9.30
2019-01-25T19:55:30.178Z,9.40
2019-01-25T19:58:00.472Z,10.10
2019-01-25T20:00:34.764Z,9.53
2019-01-25T20:03:03.074Z,9.00
2019-01-25T20:05:32.265Z,9.35
2019-01-25T20:08:01.290Z,8.58
2019-01-25T20:10:29.594Z,9.55
2019-01-25T20:12:57.912Z,9.20
2019-01-25T20:15:27.293Z,8.05
2019-01-25T20:17:55.562Z,8.63
2019-01-25T20:20:29.993Z,9.70
2019-01-25T20:22:58.243Z,9.70
2019-01-25T20:25:26.490Z,9.58
2019-01-25T20:27:54.741Z,9.60
2019-01-25T20:30:25.244Z,8.43
2019-01-25T20:32:53.580Z,8.68
2019-01-25T20:35:27.264Z,9.85
2019-01-25T20:37:55.578Z,10.03
2019-01-25T20:40:23.858Z,10.00
2019-01-25T20:42:52.100Z,9.73
2019-01-25T20:45:32.041Z,9.75
2019-01-25T20:48:00.304Z,8.13
2019-01-25T20:50:31.099Z,8.85
2019-01-25T20:52:59.349Z,8.18
2019-01-25T20:55:27.598Z,8.05
2019-01-25T20:57:57.048Z,9.25
2019-01-25T21:00:28.244Z,8.08
2019-01-25T21:02:56.530Z,7.87
2019-01-25T21:05:24.759Z,7.33
2019-01-25T21:07:53.021Z,8.43
2019-01-25T21:10:23.502Z,7.72
2019-01-25T21:12:51.752Z,7.62
2019-01-25T21:15:22.353Z,7.20
2019-01-25T21:17:50.668Z,6.45
2019-01-25T21:20:36.694Z,8.23
2019-01-25T21:23:06.800Z,8.85
2019-01-25T21:25:35.053Z,7.65
2019-01-25T21:28:03.363Z,7.58
2019-01-25T21:30:33.963Z,6.40
2019-01-25T21:33:02.204Z,6.97
2019-01-25T21:35:30.432Z,7.05
2019-01-25T21:37:58.698Z,7.22
2019-01-25T21:40:28.967Z,8.15
2019-01-25T21:42:58.209Z,7.67
2019-01-25T21:45:28.988Z,7.62
2019-01-25T21:47:57.328Z,7.05
2019-01-25T21:50:31.300Z,6.58
2019-01-25T21:52:59.550Z,7.05
2019-01-25T21:55:27.789Z,8.18
2019-01-25T21:57:56.057Z,7.20
2019-01-25T22:00:27.561Z,7.15
2019-01-25T22:02:55.811Z,7.08
2019-01-25T22:05:24.064Z,7.35
2019-01-25T22:07:52.389Z,8.20
2019-01-25T22:10:26.283Z,6.87
2019-01-25T22:12:54.524Z,7.20
2019-01-25T22:15:22.812Z,7.70
2019-01-25T22:17:51.038Z,7.28
2019-01-25T22:20:21.345Z,7.87
2019-01-25T22:22:49.569Z,7.30
2019-01-25T22:25:17.843Z,7.53
2019-01-25T22:27:47.733Z,7.67
2019-01-25T22:30:18.295Z,7.95
2019-01-25T22:32:46.541Z,7.15
2019-01-25T22:35:14.808Z,8.60
2019-01-25T22:37:43.120Z,7.50
2019-01-25T22:40:14.127Z,8.05
2019-01-25T22:42:42.375Z,8.65
2019-01-25T22:45:16.282Z,7.83
2019-01-25T22:47:44.559Z,7.67
2019-01-25T22:50:15.914Z,7.90
2019-01-25T22:52:44.197Z,7.75
2019-01-25T22:55:15.021Z,7.47
2019-01-25T22:57:43.271Z,8.15
2019-01-25T23:00:54.937Z,7.55
2019-01-25T23:03:26.464Z,7.42
2019-01-25T23:06:27.872Z,7.67
2019-01-25T23:08:59.360Z,7.10
2019-01-25T23:11:27.649Z,7.62
2019-01-25T23:13:55.873Z,8.03
2019-01-25T23:16:24.126Z,8.83
2019-01-25T23:18:52.358Z,8.80
2019-01-25T23:21:20.609Z,8.23
2019-01-25T23:23:48.869Z,7.67
2019-01-25T23:26:17.177Z,8.15
2019-01-25T23:28:45.443Z,8.05
2019-01-25T23:31:13.677Z,9.45
2019-01-25T23:33:41.930Z,7.22
2019-01-25T23:36:10.176Z,7.58
2019-01-25T23:38:38.440Z,7.87
2019-01-25T23:41:06.674Z,8.63
2019-01-25T23:43:34.947Z,7.92
2019-01-25T23:46:03.196Z,7.85
2019-01-25T23:48:31.429Z,8.50
2019-01-25T23:50:59.767Z,7.53
2019-01-25T23:53:28.006Z,7.45
2019-01-25T23:55:56.259Z,7.87
2019-01-25T23:58:24.499Z,8.10
